Moran — 4XIM — position and weather

sailwx.info

Track history (hours):
 
Tides and Currents Weather Stations Pressure Air Temp Water Temp Dewpoint Dewpoint Depression Visibility Wind Speed Wind Dir Waves Ship Positions

Moran

Last reported at 2017-Nov-17 08:05 UTC. Time now 2017-Nov-24 22:05 UTC.
Position N 01°15' E 104°07'.

Type: Cargo ship. MMSI: 428011000.

Date/timePositionNaut miles runAvg speedWind from/ knotsBaromVisibWave heightAir tempDewpointWater temp
2017-Nov-17 08:05N 01°15' E 104°07'114.9
2017-Nov-17 08:00N 01°15' E 104°05'714.5
2017-Nov-17 07:30N 01°13' E 103°58'714.6
2017-Nov-17 07:00N 01°11' E 103°52'714.7
2017-Nov-17 06:30N 01°07' E 103°45'713.8
2017-Nov-17 06:00N 01°03' E 103°40'612.2
2017-Nov-17 05:30N 01°06' E 103°34'713.7
2017-Nov-17 05:00N 01°09' E 103°28'713.7
2017-Nov-17 04:29N 01°14' E 103°23'713.7
2017-Nov-17 04:00N 01°18' E 103°17'  
Track history (hours):
 
Tides and Currents Weather Stations Pressure Air Temp Water Temp Dewpoint Dewpoint Depression Visibility Wind Speed Wind Dir Waves Ship Positions

Moran

Last reported at 2017-Nov-17 08:05 UTC. Time now 2017-Nov-24 22:05 UTC.
Position N 01°15' E 104°07'.

Type: Cargo ship. MMSI: 428011000.

Date/timePositionNaut miles runAvg speedWind from/ knotsBaromVisibWave heightAir tempDewpointWater temp
2017-Nov-17 08:05N 01°15' E 104°07'114.9
2017-Nov-17 08:00N 01°15' E 104°05'714.5
2017-Nov-17 07:30N 01°13' E 103°58'714.6
2017-Nov-17 07:00N 01°11' E 103°52'714.7
2017-Nov-17 06:30N 01°07' E 103°45'713.8
2017-Nov-17 06:00N 01°03' E 103°40'612.2
2017-Nov-17 05:30N 01°06' E 103°34'713.7
2017-Nov-17 05:00N 01°09' E 103°28'713.7
2017-Nov-17 04:29N 01°14' E 103°23'713.7
2017-Nov-17 04:00N 01°18' E 103°17'  

Dump ship's entire track history